createdAt,value
2017-08-11T00:00:03.576Z,62.33
2017-08-11T00:00:07.829Z,62.10
2017-08-11T00:00:12.126Z,62.47
2017-08-11T00:00:16.395Z,63.45
2017-08-11T00:00:20.636Z,63.50
2017-08-11T00:00:25.670Z,63.60
2017-08-11T00:00:29.940Z,63.60
2017-08-11T00:00:34.185Z,63.80
2017-08-11T00:00:39.193Z,63.85
2017-08-11T00:00:44.234Z,64.30
2017-08-11T00:00:49.256Z,64.63
2017-08-11T00:00:53.498Z,64.37
2017-08-11T00:00:57.783Z,64.33
2017-08-11T00:01:02.034Z,64.30
2017-08-11T00:01:07.088Z,64.40
2017-08-11T00:01:11.336Z,64.67
2017-08-11T00:01:15.597Z,64.30
2017-08-11T00:01:19.900Z,64.47
2017-08-11T00:01:24.154Z,64.80
2017-08-11T00:01:28.394Z,65.00
2017-08-11T00:01:32.649Z,65.10
2017-08-11T00:01:36.912Z,65.20
2017-08-11T00:01:41.170Z,65.15
2017-08-11T00:01:45.419Z,64.95
2017-08-11T00:01:49.660Z,64.80
2017-08-11T00:01:54.703Z,64.95
2017-08-11T00:01:58.970Z,64.73
2017-08-11T00:02:03.192Z,64.70
2017-08-11T00:02:07.460Z,64.50
2017-08-11T00:02:11.756Z,64.10
2017-08-11T00:02:16.019Z,64.20
2017-08-11T00:02:20.264Z,64.35
2017-08-11T00:02:24.532Z,64.63
2017-08-11T00:02:28.782Z,64.70
2017-08-11T00:02:33.797Z,64.65
2017-08-11T00:02:38.801Z,64.63
2017-08-11T00:02:43.030Z,64.90
2017-08-11T00:02:47.327Z,64.80
2017-08-11T00:02:52.368Z,64.60
2017-08-11T00:02:56.605Z,64.47
2017-08-11T00:03:00.880Z,64.50
2017-08-11T00:03:05.146Z,64.90
2017-08-11T00:03:10.141Z,64.97
2017-08-11T00:03:15.198Z,65.33
2017-08-11T00:03:19.466Z,65.33
2017-08-11T00:03:23.710Z,65.75
2017-08-11T00:03:27.961Z,65.85
2017-08-11T00:03:32.200Z,66.17
2017-08-11T00:03:36.478Z,66.50
2017-08-11T00:03:40.769Z,65.85
2017-08-11T00:03:45.046Z,65.45
2017-08-11T00:03:49.318Z,65.30
2017-08-11T00:03:53.598Z,64.70
2017-08-11T00:03:58.616Z,65.10
2017-08-11T00:04:02.872Z,64.93
2017-08-11T00:04:07.154Z,65.03
2017-08-11T00:04:11.426Z,64.60
2017-08-11T00:04:15.685Z,64.60
2017-08-11T00:04:20.727Z,64.50
2017-08-11T00:04:25.753Z,64.50
2017-08-11T00:04:30.024Z,64.63
2017-08-11T00:04:34.276Z,64.50
2017-08-11T00:04:38.533Z,64.95
2017-08-11T00:04:43.560Z,65.45
2017-08-11T00:04:48.552Z,65.87
2017-08-11T00:04:53.605Z,66.00
2017-08-11T00:04:58.622Z,65.65
2017-08-11T00:05:02.886Z,65.90
2017-08-11T00:05:07.137Z,66.10
2017-08-11T00:05:11.373Z,65.85
2017-08-11T00:05:15.662Z,65.60
2017-08-11T00:05:19.944Z,65.07
2017-08-11T00:05:24.199Z,64.95
2017-08-11T00:05:28.458Z,64.35
2017-08-11T00:05:32.712Z,63.53
2017-08-11T00:05:37.834Z,63.35
2017-08-11T00:05:42.859Z,62.80
2017-08-11T00:05:47.874Z,62.60
2017-08-11T00:05:52.143Z,62.73
2017-08-11T00:05:56.479Z,62.70
2017-08-11T00:06:00.756Z,62.17
2017-08-11T00:06:05.023Z,61.50
2017-08-11T00:06:09.253Z,61.50
2017-08-11T00:06:13.508Z,61.00
2017-08-11T00:06:17.797Z,60.67
2017-08-11T00:06:22.075Z,60.10
2017-08-11T00:06:26.311Z,59.75
2017-08-11T00:06:30.591Z,60.27
2017-08-11T00:06:34.837Z,60.30
2017-08-11T00:06:39.074Z,60.20
2017-08-11T00:06:43.389Z,60.00
2017-08-11T00:06:48.422Z,60.03
2017-08-11T00:06:52.717Z,59.80
2017-08-11T00:06:56.978Z,59.50
2017-08-11T00:07:01.245Z,59.20
2017-08-11T00:07:05.531Z,59.20
2017-08-11T00:07:09.786Z,58.40
2017-08-11T00:07:14.074Z,58.75
2017-08-11T00:07:18.342Z,58.80
2017-08-11T00:07:22.637Z,58.95
2017-08-11T00:07:26.898Z,58.80
2017-08-11T00:07:31.948Z,58.60
2017-08-11T00:07:36.194Z,58.53
2017-08-11T00:07:40.460Z,58.60
2017-08-11T00:07:44.716Z,58.15
2017-08-11T00:07:48.973Z,58.05
2017-08-11T00:07:53.256Z,58.87
2017-08-11T00:07:57.655Z,59.00
2017-08-11T00:08:01.974Z,58.80
2017-08-11T00:08:06.279Z,58.63
2017-08-11T00:08:10.546Z,59.30
2017-08-11T00:08:14.821Z,59.30
2017-08-11T00:08:19.082Z,59.15
2017-08-11T00:08:23.389Z,58.77
2017-08-11T00:08:27.641Z,58.35
2017-08-11T00:08:31.909Z,57.90
2017-08-11T00:08:36.188Z,57.63
2017-08-11T00:08:40.461Z,57.25
2017-08-11T00:08:44.740Z,57.30
2017-08-11T00:08:49.773Z,56.80
2017-08-11T00:08:54.054Z,56.60
2017-08-11T00:08:59.099Z,56.85
2017-08-11T00:09:03.401Z,57.47
2017-08-11T00:09:07.689Z,57.45
2017-08-11T00:09:11.957Z,57.47
2017-08-11T00:09:16.268Z,57.50
2017-08-11T00:09:20.512Z,57.70
2017-08-11T00:09:24.785Z,57.95
2017-08-11T00:09:29.047Z,58.80
2017-08-11T00:09:33.329Z,59.05
2017-08-11T00:09:37.623Z,59.40
2017-08-11T00:09:41.906Z,59.47
2017-08-11T00:09:46.182Z,59.35
2017-08-11T00:09:51.216Z,59.25
2017-08-11T00:09:55.483Z,58.93
2017-08-11T00:09:59.745Z,58.27
2017-08-11T00:10:04.033Z,57.85
2017-08-11T00:10:08.285Z,57.55
2017-08-11T00:10:12.579Z,57.15
2017-08-11T00:10:16.833Z,57.17
2017-08-11T00:10:21.142Z,57.00
2017-08-11T00:10:25.410Z,56.75
2017-08-11T00:10:30.451Z,56.17
2017-08-11T00:10:34.715Z,55.77
2017-08-11T00:10:39.773Z,55.60
2017-08-11T00:10:44.040Z,55.87
2017-08-11T00:10:49.094Z,55.70
2017-08-11T00:10:53.353Z,55.50
2017-08-11T00:10:58.399Z,55.50
2017-08-11T00:11:02.670Z,55.93
2017-08-11T00:11:06.941Z,56.45
2017-08-11T00:11:11.215Z,56.60
2017-08-11T00:11:15.486Z,56.43
2017-08-11T00:11:20.551Z,56.90
2017-08-11T00:11:24.812Z,57.40
2017-08-11T00:11:29.860Z,57.80
2017-08-11T00:11:34.121Z,57.87
2017-08-11T00:11:38.394Z,58.47
2017-08-11T00:11:42.661Z,58.60
2017-08-11T00:11:46.916Z,58.90
2017-08-11T00:11:51.201Z,59.20
2017-08-11T00:11:55.588Z,59.07
2017-08-11T00:11:59.844Z,58.90
2017-08-11T00:12:04.102Z,58.85
2017-08-11T00:12:08.386Z,58.60
2017-08-11T00:12:12.663Z,58.85
2017-08-11T00:12:16.959Z,59.00
2017-08-11T00:12:21.229Z,58.60
2017-08-11T00:12:25.524Z,58.20
2017-08-11T00:12:30.558Z,58.15
2017-08-11T00:12:35.586Z,58.13
2017-08-11T00:12:39.863Z,57.90
2017-08-11T00:12:44.136Z,57.70
2017-08-11T00:12:48.407Z,57.50
2017-08-11T00:12:52.674Z,57.75
2017-08-11T00:12:57.720Z,57.75
2017-08-11T00:13:02.004Z,57.00
2017-08-11T00:13:06.273Z,56.70
2017-08-11T00:13:10.552Z,56.30
2017-08-11T00:13:14.818Z,56.05
2017-08-11T00:13:19.108Z,56.00
2017-08-11T00:13:23.396Z,55.70
2017-08-11T00:13:28.431Z,55.85
2017-08-11T00:13:32.725Z,55.13
2017-08-11T00:13:37.008Z,54.80
2017-08-11T00:13:41.303Z,54.85
2017-08-11T00:13:46.372Z,54.70
2017-08-11T00:13:50.634Z,54.50
2017-08-11T00:13:54.905Z,54.13
2017-08-11T00:13:59.170Z,54.20
2017-08-11T00:14:03.468Z,54.70
2017-08-11T00:14:07.759Z,54.45
2017-08-11T00:14:12.046Z,54.63
2017-08-11T00:14:17.078Z,54.55
2017-08-11T00:14:21.351Z,54.10
2017-08-11T00:14:26.408Z,53.60
2017-08-11T00:14:30.655Z,53.60
2017-08-11T00:14:34.946Z,53.83
2017-08-11T00:14:39.245Z,53.60
2017-08-11T00:14:43.626Z,53.00
2017-08-11T00:14:47.880Z,53.00
2017-08-11T00:14:52.921Z,52.85
2017-08-11T00:14:57.204Z,53.10
2017-08-11T00:15:02.257Z,53.20
2017-08-11T00:15:06.521Z,53.27
2017-08-11T00:15:11.583Z,53.37
2017-08-11T00:15:15.854Z,53.40
2017-08-11T00:15:20.142Z,53.70
2017-08-11T00:15:25.197Z,53.70
2017-08-11T00:15:29.486Z,54.03
2017-08-11T00:15:33.771Z,54.50
2017-08-11T00:15:38.792Z,54.60
2017-08-11T00:15:43.080Z,55.27
2017-08-11T00:15:48.102Z,55.10
2017-08-11T00:15:53.349Z,55.37
2017-08-11T00:15:57.684Z,55.80
2017-08-11T00:16:01.962Z,55.75
2017-08-11T00:16:06.212Z,55.45
2017-08-11T00:16:11.236Z,55.67
2017-08-11T00:16:16.279Z,55.63
2017-08-11T00:16:20.568Z,55.40
2017-08-11T00:16:25.610Z,55.50
2017-08-11T00:16:29.909Z,55.20
2017-08-11T00:16:34.170Z,54.55
2017-08-11T00:16:38.446Z,54.03
2017-08-11T00:16:42.724Z,53.80
2017-08-11T00:16:47.014Z,53.90
2017-08-11T00:16:51.294Z,53.70
2017-08-11T00:16:55.580Z,53.30
2017-08-11T00:17:00.610Z,53.10
2017-08-11T00:17:05.641Z,53.00
2017-08-11T00:17:09.917Z,52.90
2017-08-11T00:17:14.940Z,52.40
2017-08-11T00:17:19.247Z,52.47
2017-08-11T00:17:24.271Z,52.15
2017-08-11T00:17:28.542Z,51.93
2017-08-11T00:17:32.812Z,52.40
2017-08-11T00:17:37.102Z,52.47
2017-08-11T00:17:41.357Z,52.30
2017-08-11T00:17:45.642Z,52.35
2017-08-11T00:17:49.903Z,52.55
2017-08-11T00:17:54.197Z,52.40
2017-08-11T00:17:58.464Z,52.35
2017-08-11T00:18:03.507Z,52.25
2017-08-11T00:18:07.769Z,52.17
2017-08-11T00:18:12.046Z,52.17
2017-08-11T00:18:16.318Z,52.10
2017-08-11T00:18:20.582Z,52.00
2017-08-11T00:18:26.332Z,51.90
2017-08-11T00:18:30.614Z,51.65
2017-08-11T00:18:35.636Z,51.10
2017-08-11T00:18:39.916Z,50.90
2017-08-11T00:18:44.184Z,50.65
2017-08-11T00:18:48.502Z,50.15
2017-08-11T00:18:52.771Z,50.10
2017-08-11T00:18:57.108Z,49.87
2017-08-11T00:19:01.363Z,49.75
2017-08-11T00:19:05.630Z,49.75
2017-08-11T00:19:09.912Z,49.60
2017-08-11T00:19:14.159Z,49.45
2017-08-11T00:19:18.436Z,49.45
2017-08-11T00:19:22.705Z,49.50
2017-08-11T00:19:26.965Z,49.30
2017-08-11T00:19:31.248Z,49.15
2017-08-11T00:19:36.289Z,49.45
2017-08-11T00:19:40.564Z,49.33
2017-08-11T00:19:45.617Z,49.33
2017-08-11T00:19:49.879Z,49.53
2017-08-11T00:19:54.146Z,49.65
2017-08-11T00:19:58.418Z,49.60
2017-08-11T00:20:02.703Z,49.47
2017-08-11T00:20:06.977Z,49.30
2017-08-11T00:20:11.237Z,49.20
2017-08-11T00:20:15.498Z,49.13
2017-08-11T00:20:19.771Z,49.15
2017-08-11T00:20:24.026Z,49.35
2017-08-11T00:20:28.294Z,49.70
2017-08-11T00:20:33.427Z,49.87
2017-08-11T00:20:37.790Z,50.00
2017-08-11T00:20:42.065Z,49.85
2017-08-11T00:20:46.334Z,49.80
2017-08-11T00:20:50.614Z,49.70
2017-08-11T00:20:55.650Z,49.65
2017-08-11T00:20:59.930Z,49.70
2017-08-11T00:21:04.182Z,49.95
2017-08-11T00:21:08.455Z,49.90
2017-08-11T00:21:12.718Z,49.95
2017-08-11T00:21:16.986Z,50.10
2017-08-11T00:21:21.252Z,49.80
2017-08-11T00:21:25.504Z,49.55
2017-08-11T00:21:29.782Z,49.45
2017-08-11T00:21:34.049Z,48.90
2017-08-11T00:21:39.094Z,48.73
2017-08-11T00:21:43.391Z,48.87
2017-08-11T00:21:47.648Z,48.75
2017-08-11T00:21:52.032Z,48.30
2017-08-11T00:21:56.326Z,47.90
2017-08-11T00:22:00.601Z,47.45
2017-08-11T00:22:04.877Z,46.80
2017-08-11T00:22:09.128Z,46.80
2017-08-11T00:22:13.406Z,46.60
2017-08-11T00:22:17.659Z,46.40
2017-08-11T00:22:21.916Z,46.50
2017-08-11T00:22:26.199Z,46.27
2017-08-11T00:22:30.488Z,46.25
2017-08-11T00:22:34.755Z,46.25
2017-08-11T00:22:39.026Z,46.00
2017-08-11T00:22:43.289Z,45.60
2017-08-11T00:22:47.561Z,45.45
2017-08-11T00:22:52.607Z,45.70
2017-08-11T00:22:56.893Z,45.63
2017-08-11T00:23:01.922Z,45.30
2017-08-11T00:23:06.190Z,44.97
2017-08-11T00:23:10.485Z,44.45
2017-08-11T00:23:14.780Z,44.15
2017-08-11T00:23:19.047Z,43.90
2017-08-11T00:23:23.310Z,43.50
2017-08-11T00:23:28.353Z,43.30
2017-08-11T00:23:32.624Z,43.27
2017-08-11T00:23:37.676Z,43.10
2017-08-11T00:23:41.978Z,43.10
2017-08-11T00:23:46.257Z,43.00
2017-08-11T00:23:51.544Z,43.00
2017-08-11T00:23:55.829Z,43.03
2017-08-11T00:24:00.102Z,42.95
2017-08-11T00:24:04.371Z,43.20
2017-08-11T00:24:09.434Z,43.53
2017-08-11T00:24:13.705Z,44.10
2017-08-11T00:24:18.745Z,43.90
2017-08-11T00:24:23.049Z,43.90
2017-08-11T00:24:27.314Z,43.65
2017-08-11T00:24:32.331Z,43.37
2017-08-11T00:24:36.675Z,43.03
2017-08-11T00:24:40.955Z,42.55
2017-08-11T00:24:45.192Z,42.10
2017-08-11T00:24:49.442Z,41.90
2017-08-11T00:24:53.711Z,41.57
2017-08-11T00:24:57.973Z,41.60
2017-08-11T00:25:02.236Z,41.60
2017-08-11T00:25:07.273Z,41.77
2017-08-11T00:25:11.546Z,41.10
2017-08-11T00:25:16.557Z,40.65
2017-08-11T00:25:21.571Z,40.83
2017-08-11T00:25:25.940Z,40.63
2017-08-11T00:25:30.211Z,40.55
2017-08-11T00:25:34.472Z,40.50
2017-08-11T00:25:38.729Z,40.70
2017-08-11T00:25:42.957Z,40.95
2017-08-11T00:25:47.237Z,41.20
2017-08-11T00:25:51.540Z,41.63
2017-08-11T00:25:55.782Z,41.80
2017-08-11T00:26:00.017Z,41.75
2017-08-11T00:26:04.297Z,41.43
2017-08-11T00:26:08.554Z,41.55
2017-08-11T00:26:12.846Z,41.70
2017-08-11T00:26:17.131Z,41.85
2017-08-11T00:26:21.377Z,42.00
2017-08-11T00:26:25.628Z,42.25
2017-08-11T00:26:29.885Z,42.20
2017-08-11T00:26:34.117Z,41.93
2017-08-11T00:26:38.357Z,41.90
2017-08-11T00:26:42.619Z,42.15
2017-08-11T00:26:46.889Z,41.90
2017-08-11T00:26:51.900Z,41.20
2017-08-11T00:26:56.144Z,40.73
2017-08-11T00:27:00.407Z,40.50
2017-08-11T00:27:04.674Z,40.70
2017-08-11T00:27:08.924Z,40.55
2017-08-11T00:27:13.189Z,40.57
2017-08-11T00:27:17.475Z,40.55
2017-08-11T00:27:21.727Z,40.60
2017-08-11T00:27:25.991Z,40.97
2017-08-11T00:27:30.224Z,41.15
2017-08-11T00:27:34.478Z,41.55
2017-08-11T00:27:38.770Z,41.05
2017-08-11T00:27:43.110Z,40.80
2017-08-11T00:27:47.406Z,40.75
2017-08-11T00:27:51.624Z,40.55
2017-08-11T00:27:55.897Z,40.77
2017-08-11T00:28:00.160Z,40.90
2017-08-11T00:28:04.424Z,40.65
2017-08-11T00:28:08.691Z,40.70
2017-08-11T00:28:12.939Z,40.50
2017-08-11T00:28:17.206Z,40.05
2017-08-11T00:28:21.446Z,39.40
2017-08-11T00:28:25.686Z,38.77
2017-08-11T00:28:29.938Z,38.65
2017-08-11T00:28:34.173Z,38.25
2017-08-11T00:28:38.434Z,38.30
2017-08-11T00:28:43.533Z,38.17
2017-08-11T00:28:48.558Z,38.27
2017-08-11T00:28:53.604Z,38.73
2017-08-11T00:28:58.722Z,38.47
2017-08-11T00:29:02.952Z,38.30
2017-08-11T00:29:07.212Z,37.95
2017-08-11T00:29:11.503Z,37.95
2017-08-11T00:29:16.544Z,37.80
2017-08-11T00:29:20.772Z,37.90
2017-08-11T00:29:25.178Z,38.10
2017-08-11T00:29:29.429Z,38.00
2017-08-11T00:29:33.685Z,37.93
2017-08-11T00:29:37.953Z,38.15
2017-08-11T00:29:42.215Z,38.35
2017-08-11T00:29:47.226Z,38.33
2017-08-11T00:29:52.248Z,38.23
2017-08-11T00:29:58.347Z,38.07
2017-08-11T00:30:02.607Z,38.00
2017-08-11T00:30:07.621Z,37.80
2017-08-11T00:30:11.888Z,37.80
2017-08-11T00:30:16.149Z,38.10
2017-08-11T00:30:20.424Z,38.30
2017-08-11T00:30:24.675Z,38.20
2017-08-11T00:30:28.966Z,38.30
2017-08-11T00:30:33.200Z,38.63
2017-08-11T00:30:37.481Z,38.70
2017-08-11T00:30:41.723Z,38.80
2017-08-11T00:30:46.823Z,38.75
2017-08-11T00:30:51.052Z,38.53
2017-08-11T00:30:55.303Z,38.77
2017-08-11T00:30:59.550Z,38.85
2017-08-11T00:31:03.830Z,39.15
2017-08-11T00:31:08.089Z,39.10
2017-08-11T00:31:12.337Z,39.20
2017-08-11T00:31:17.378Z,39.05
2017-08-11T00:31:21.650Z,38.90
2017-08-11T00:31:25.878Z,38.55
2017-08-11T00:31:30.143Z,38.10
2017-08-11T00:31:34.385Z,38.15
2017-08-11T00:31:38.656Z,37.80
2017-08-11T00:31:42.897Z,37.70
2017-08-11T00:31:48.171Z,37.93
2017-08-11T00:31:52.468Z,38.10
2017-08-11T00:31:56.738Z,37.85
2017-08-11T00:32:01.002Z,37.80
2017-08-11T00:32:05.251Z,37.95
2017-08-11T00:32:09.490Z,38.00
2017-08-11T00:32:14.498Z,37.80
2017-08-11T00:32:18.734Z,37.97
2017-08-11T00:32:23.016Z,38.40
2017-08-11T00:32:27.266Z,38.80
2017-08-11T00:32:31.541Z,38.70
2017-08-11T00:32:35.806Z,38.60
2017-08-11T00:32:40.818Z,38.60
2017-08-11T00:32:45.859Z,38.60
2017-08-11T00:32:50.169Z,38.13
2017-08-11T00:32:54.443Z,37.95
2017-08-11T00:32:59.462Z,38.10
2017-08-11T00:33:04.506Z,37.80
2017-08-11T00:33:08.763Z,37.50
2017-08-11T00:33:13.030Z,37.50
2017-08-11T00:33:17.271Z,37.20
2017-08-11T00:33:22.305Z,36.85
2017-08-11T00:33:27.331Z,36.27
2017-08-11T00:33:31.561Z,35.75
2017-08-11T00:33:35.840Z,35.60
2017-08-11T00:33:40.081Z,35.70
2017-08-11T00:33:44.352Z,35.65
2017-08-11T00:33:48.619Z,36.03
2017-08-11T00:33:52.888Z,36.05
2017-08-11T00:33:57.153Z,35.95
2017-08-11T00:34:01.385Z,36.00
2017-08-11T00:34:05.655Z,36.00
2017-08-11T00:34:09.889Z,36.10
2017-08-11T00:34:14.148Z,36.15
2017-08-11T00:34:18.403Z,36.13
2017-08-11T00:34:22.644Z,36.25
2017-08-11T00:34:26.889Z,36.45
2017-08-11T00:34:31.206Z,37.00
2017-08-11T00:34:35.455Z,37.27
2017-08-11T00:34:39.713Z,36.95
2017-08-11T00:34:44.029Z,36.80
2017-08-11T00:34:48.272Z,36.77
2017-08-11T00:34:52.554Z,37.20
2017-08-11T00:34:56.793Z,37.50
2017-08-11T00:35:01.060Z,37.40
2017-08-11T00:35:05.325Z,37.77
2017-08-11T00:35:10.356Z,37.75
2017-08-11T00:35:14.630Z,37.67
2017-08-11T00:35:18.885Z,37.90
2017-08-11T00:35:23.149Z,38.30
2017-08-11T00:35:27.420Z,38.40
2017-08-11T00:35:31.664Z,38.05
2017-08-11T00:35:35.926Z,38.00
2017-08-11T00:35:40.173Z,38.30
2017-08-11T00:35:44.414Z,38.05
2017-08-11T00:35:48.697Z,37.75
2017-08-11T00:35:52.979Z,37.05
2017-08-11T00:35:57.252Z,37.07
2017-08-11T00:36:02.293Z,36.80
2017-08-11T00:36:06.564Z,36.10
2017-08-11T00:36:10.834Z,36.10
2017-08-11T00:36:15.112Z,35.73
2017-08-11T00:36:19.374Z,35.45
2017-08-11T00:36:24.410Z,35.05
2017-08-11T00:36:28.679Z,34.50
2017-08-11T00:36:32.946Z,34.63
2017-08-11T00:36:37.220Z,34.30
2017-08-11T00:36:41.504Z,34.40
2017-08-11T00:36:46.574Z,34.70
2017-08-11T00:36:50.823Z,34.90
2017-08-11T00:36:55.114Z,35.10
2017-08-11T00:37:00.173Z,35.00
2017-08-11T00:37:04.460Z,35.33
2017-08-11T00:37:08.730Z,35.60
2017-08-11T00:37:13.788Z,35.87
2017-08-11T00:37:18.050Z,35.90
2017-08-11T00:37:22.330Z,35.90
2017-08-11T00:37:26.597Z,36.05
2017-08-11T00:37:30.911Z,36.17
2017-08-11T00:37:35.173Z,35.90
2017-08-11T00:37:39.461Z,35.40
2017-08-11T00:37:44.509Z,34.87
2017-08-11T00:37:48.774Z,34.57
2017-08-11T00:37:53.823Z,34.10
2017-08-11T00:37:58.084Z,33.87
2017-08-11T00:38:02.375Z,34.00
2017-08-11T00:38:06.657Z,33.80
2017-08-11T00:38:10.933Z,33.60
2017-08-11T00:38:15.219Z,33.70
2017-08-11T00:38:19.494Z,33.85
2017-08-11T00:38:24.519Z,33.87
2017-08-11T00:38:29.581Z,33.47
2017-08-11T00:38:33.854Z,33.10
2017-08-11T00:38:38.103Z,33.00
2017-08-11T00:38:42.414Z,33.30
2017-08-11T00:38:46.700Z,33.30
2017-08-11T00:38:50.971Z,33.35
2017-08-11T00:38:55.287Z,33.50
2017-08-11T00:38:59.581Z,33.23
2017-08-11T00:39:03.894Z,33.10
2017-08-11T00:39:08.200Z,33.20
2017-08-11T00:39:12.490Z,32.90
2017-08-11T00:39:16.758Z,32.90
2017-08-11T00:39:21.038Z,32.85
2017-08-11T00:39:25.312Z,33.10
2017-08-11T00:39:29.594Z,33.35
2017-08-11T00:39:33.875Z,33.55
2017-08-11T00:39:38.146Z,33.60
2017-08-11T00:39:43.190Z,33.50
2017-08-11T00:39:47.476Z,33.50
2017-08-11T00:39:52.512Z,33.60
2017-08-11T00:39:56.758Z,33.80
2017-08-11T00:40:01.022Z,33.80
2017-08-11T00:40:05.310Z,33.93
2017-08-11T00:40:09.574Z,34.10
2017-08-11T00:40:14.612Z,34.20
2017-08-11T00:40:19.667Z,34.10
2017-08-11T00:40:23.918Z,33.60
2017-08-11T00:40:28.206Z,33.47
2017-08-11T00:40:32.490Z,33.85
2017-08-11T00:40:36.783Z,34.00
2017-08-11T00:40:41.055Z,34.00
2017-08-11T00:40:45.329Z,34.25
2017-08-11T00:40:50.368Z,34.60
2017-08-11T00:40:54.633Z,34.57
2017-08-11T00:40:58.921Z,34.85
2017-08-11T00:41:03.190Z,34.90
2017-08-11T00:41:07.462Z,34.85
2017-08-11T00:41:12.515Z,34.80
2017-08-11T00:41:16.766Z,34.67
2017-08-11T00:41:21.802Z,34.77
2017-08-11T00:41:26.071Z,34.83
2017-08-11T00:41:30.350Z,34.85
2017-08-11T00:41:34.614Z,34.70
2017-08-11T00:41:38.900Z,34.97
2017-08-11T00:41:43.937Z,34.85
2017-08-11T00:41:48.211Z,34.77
2017-08-11T00:41:52.485Z,34.80
2017-08-11T00:41:56.764Z,34.80
2017-08-11T00:42:01.034Z,34.45
2017-08-11T00:42:05.326Z,34.20
2017-08-11T00:42:09.612Z,34.20
2017-08-11T00:42:13.921Z,34.03
2017-08-11T00:42:19.269Z,33.80
2017-08-11T00:42:23.754Z,33.63
2017-08-11T00:42:28.817Z,33.80
2017-08-11T00:42:33.082Z,33.80
2017-08-11T00:42:37.346Z,33.15
2017-08-11T00:42:41.636Z,33.27
2017-08-11T00:42:45.909Z,33.20
2017-08-11T00:42:50.184Z,33.05
2017-08-11T00:42:54.443Z,32.50
2017-08-11T00:42:58.727Z,32.67
2017-08-11T00:43:03.004Z,32.65
2017-08-11T00:43:07.269Z,32.25
2017-08-11T00:43:12.305Z,32.20
2017-08-11T00:43:17.326Z,32.07
2017-08-11T00:43:21.624Z,31.97
2017-08-11T00:43:25.890Z,31.65
2017-08-11T00:43:30.210Z,31.45
2017-08-11T00:43:34.498Z,31.70
2017-08-11T00:43:38.790Z,31.75
2017-08-11T00:43:43.051Z,31.35
2017-08-11T00:43:47.322Z,31.00
2017-08-11T00:43:51.590Z,31.10
2017-08-11T00:43:55.865Z,30.95
2017-08-11T00:44:00.122Z,30.55
2017-08-11T00:44:04.414Z,30.43
2017-08-11T00:44:09.475Z,30.45
2017-08-11T00:44:13.743Z,30.33
2017-08-11T00:44:18.789Z,30.35
2017-08-11T00:44:23.073Z,30.63
2017-08-11T00:44:28.112Z,30.67
2017-08-11T00:44:32.385Z,30.80
2017-08-11T00:44:36.674Z,30.65
2017-08-11T00:44:41.699Z,30.50
2017-08-11T00:44:46.760Z,30.67
2017-08-11T00:44:51.071Z,30.80
2017-08-11T00:44:55.326Z,30.83
2017-08-11T00:44:59.603Z,31.15
2017-08-11T00:45:03.878Z,31.20
2017-08-11T00:45:08.155Z,31.20
2017-08-11T00:45:12.415Z,31.15
2017-08-11T00:45:17.440Z,31.30
2017-08-11T00:45:21.715Z,30.95
2017-08-11T00:45:25.973Z,30.90
2017-08-11T00:45:30.242Z,30.65
2017-08-11T00:45:35.279Z,30.35
2017-08-11T00:45:39.560Z,30.37
2017-08-11T00:45:44.606Z,30.30
2017-08-11T00:45:48.894Z,30.05
2017-08-11T00:45:53.938Z,29.75
2017-08-11T00:45:58.199Z,29.33
2017-08-11T00:46:03.256Z,29.30
2017-08-11T00:46:07.548Z,29.13
2017-08-11T00:46:11.813Z,29.23
2017-08-11T00:46:16.892Z,29.05
2017-08-11T00:46:21.164Z,28.90
2017-08-11T00:46:25.430Z,28.40
2017-08-11T00:46:30.470Z,28.00
2017-08-11T00:46:34.737Z,28.07
2017-08-11T00:46:39.002Z,28.10
2017-08-11T00:46:43.278Z,27.85
2017-08-11T00:46:47.558Z,27.70
2017-08-11T00:46:52.600Z,27.87
2017-08-11T00:46:56.874Z,28.10
2017-08-11T00:47:01.920Z,28.15
2017-08-11T00:47:06.224Z,28.37
2017-08-11T00:47:10.494Z,28.25
2017-08-11T00:47:15.528Z,28.10
2017-08-11T00:47:19.792Z,28.17
2017-08-11T00:47:24.067Z,28.40
2017-08-11T00:47:28.343Z,28.80
2017-08-11T00:47:32.646Z,29.17
2017-08-11T00:47:36.905Z,29.10
2017-08-11T00:47:41.961Z,29.10
2017-08-11T00:47:46.228Z,29.33
2017-08-11T00:47:51.271Z,29.30
2017-08-11T00:47:55.556Z,29.20
2017-08-11T00:47:59.814Z,29.20
2017-08-11T00:48:04.086Z,28.95
2017-08-11T00:48:08.347Z,28.70
2017-08-11T00:48:13.405Z,28.70
2017-08-11T00:48:17.688Z,28.73
2017-08-11T00:48:22.072Z,28.70
2017-08-11T00:48:27.129Z,28.60
2017-08-11T00:48:31.409Z,28.13
2017-08-11T00:48:36.454Z,27.90
2017-08-11T00:48:41.536Z,28.10
2017-08-11T00:48:46.592Z,27.90
2017-08-11T00:48:50.878Z,27.80
2017-08-11T00:48:55.145Z,27.80
2017-08-11T00:48:59.407Z,27.80
2017-08-11T00:49:03.682Z,27.80
2017-08-11T00:49:07.970Z,27.75
2017-08-11T00:49:12.986Z,27.90
2017-08-11T00:49:17.252Z,27.97
2017-08-11T00:49:21.518Z,28.05
2017-08-11T00:49:25.796Z,28.35
2017-08-11T00:49:30.083Z,28.70
2017-08-11T00:49:34.341Z,28.60
2017-08-11T00:49:38.664Z,28.40
2017-08-11T00:49:42.969Z,28.60
2017-08-11T00:49:47.252Z,28.60
2017-08-11T00:49:51.551Z,28.55
2017-08-11T00:49:55.807Z,28.40
2017-08-11T00:50:00.068Z,28.07
2017-08-11T00:50:04.352Z,28.25
2017-08-11T00:50:08.642Z,28.40
2017-08-11T00:50:12.944Z,28.57
2017-08-11T00:50:18.357Z,28.87
2017-08-11T00:50:22.615Z,28.90
2017-08-11T00:50:26.932Z,29.17
2017-08-11T00:50:31.231Z,29.30
2017-08-11T00:50:36.261Z,29.75
2017-08-11T00:50:40.549Z,29.90
2017-08-11T00:50:45.583Z,29.93
2017-08-11T00:50:49.872Z,29.93
2017-08-11T00:50:54.159Z,30.30
2017-08-11T00:50:59.204Z,30.40
2017-08-11T00:51:04.229Z,30.50
2017-08-11T00:51:08.511Z,30.80
2017-08-11T00:51:12.793Z,30.87
2017-08-11T00:51:17.854Z,30.70
2017-08-11T00:51:22.117Z,30.43
2017-08-11T00:51:27.188Z,30.15
2017-08-11T00:51:31.428Z,29.90
2017-08-11T00:51:36.511Z,29.63
2017-08-11T00:51:40.775Z,29.43
2017-08-11T00:51:45.045Z,29.55
2017-08-11T00:51:49.329Z,29.85
2017-08-11T00:51:53.632Z,29.70
2017-08-11T00:51:57.894Z,29.50
2017-08-11T00:52:02.160Z,29.60
2017-08-11T00:52:07.190Z,29.10
2017-08-11T00:52:11.472Z,28.50
2017-08-11T00:52:16.518Z,28.45
2017-08-11T00:52:20.776Z,28.33
2017-08-11T00:52:25.034Z,28.20
2017-08-11T00:52:29.284Z,28.10
2017-08-11T00:52:34.330Z,27.80
2017-08-11T00:52:38.617Z,27.70
2017-08-11T00:52:43.643Z,27.60
2017-08-11T00:52:47.932Z,27.23
2017-08-11T00:52:52.197Z,27.20
2017-08-11T00:52:56.487Z,27.37
2017-08-11T00:53:00.770Z,27.20
2017-08-11T00:53:05.040Z,27.20
2017-08-11T00:53:10.063Z,27.40
2017-08-11T00:53:15.104Z,27.17
2017-08-11T00:53:19.387Z,27.20
2017-08-11T00:53:23.685Z,27.40
2017-08-11T00:53:28.714Z,27.50
2017-08-11T00:53:32.992Z,27.77
2017-08-11T00:53:38.024Z,27.87
2017-08-11T00:53:42.295Z,27.90
2017-08-11T00:53:46.603Z,28.20
2017-08-11T00:53:50.873Z,28.20
2017-08-11T00:53:55.184Z,27.97
2017-08-11T00:53:59.459Z,27.85
2017-08-11T00:54:03.708Z,27.70
2017-08-11T00:54:08.793Z,27.75
2017-08-11T00:54:13.168Z,28.10
2017-08-11T00:54:17.456Z,28.20
2017-08-11T00:54:21.730Z,28.15
2017-08-11T00:54:25.988Z,28.17
2017-08-11T00:54:30.276Z,28.20
2017-08-11T00:54:34.537Z,28.10
2017-08-11T00:54:39.587Z,28.10
2017-08-11T00:54:43.858Z,28.15
2017-08-11T00:54:48.166Z,28.30
2017-08-11T00:54:53.232Z,28.30
2017-08-11T00:54:57.497Z,28.80
2017-08-11T00:55:01.774Z,29.20
2017-08-11T00:55:06.055Z,29.17
2017-08-11T00:55:10.308Z,28.90
2017-08-11T00:55:14.568Z,28.70
2017-08-11T00:55:18.882Z,28.90
2017-08-11T00:55:23.922Z,29.15
2017-08-11T00:55:28.204Z,28.97
2017-08-11T00:55:33.272Z,29.30
2017-08-11T00:55:37.536Z,29.43
2017-08-11T00:55:41.814Z,29.53
2017-08-11T00:55:46.108Z,29.30
2017-08-11T00:55:50.375Z,29.30
2017-08-11T00:55:55.016Z,29.17
2017-08-11T00:55:59.271Z,29.10
2017-08-11T00:56:03.528Z,29.05
2017-08-11T00:56:08.614Z,29.30
2017-08-11T00:56:12.886Z,29.33
2017-08-11T00:56:17.128Z,29.40
2017-08-11T00:56:21.413Z,29.40
2017-08-11T00:56:25.698Z,29.37
2017-08-11T00:56:29.956Z,29.35
2017-08-11T00:56:34.255Z,29.40
2017-08-11T00:56:39.291Z,29.33
2017-08-11T00:56:43.582Z,29.20
2017-08-11T00:56:48.645Z,29.05
2017-08-11T00:56:52.952Z,29.10
2017-08-11T00:56:57.225Z,28.95
2017-08-11T00:57:01.545Z,28.90
2017-08-11T00:57:05.809Z,28.70
2017-08-11T00:57:10.858Z,28.95